createdAt,value
2019-04-30T00:01:14.696Z,14.33
2019-04-30T00:03:50.434Z,10.13
2019-04-30T00:06:21.480Z,11.57
2019-04-30T00:08:52.111Z,11.83
2019-04-30T00:11:22.673Z,10.67
2019-04-30T00:13:58.825Z,12.00
2019-04-30T00:16:30.916Z,10.90
2019-04-30T00:19:01.070Z,12.73
2019-04-30T00:21:31.660Z,14.27
2019-04-30T00:24:06.246Z,14.10
2019-04-30T00:26:35.446Z,13.47
2019-04-30T00:29:06.088Z,12.30
2019-04-30T00:31:36.526Z,14.07
2019-04-30T00:34:06.955Z,11.80
2019-04-30T00:36:37.637Z,11.43
2019-04-30T00:39:13.179Z,12.33
2019-04-30T00:41:44.105Z,11.27
2019-04-30T00:44:15.158Z,12.20
2019-04-30T00:46:47.944Z,13.07
2019-04-30T00:49:22.891Z,12.70
2019-04-30T00:51:56.703Z,11.67
2019-04-30T00:54:26.948Z,10.97
2019-04-30T00:56:57.488Z,13.60
2019-04-30T00:59:26.765Z,17.93
2019-04-30T01:02:32.211Z,14.13
2019-04-30T01:05:08.925Z,13.43
2019-04-30T01:07:39.635Z,15.57
2019-04-30T01:10:11.340Z,14.77
2019-04-30T01:12:47.216Z,12.57
2019-04-30T01:15:16.328Z,17.97
2019-04-30T01:17:50.980Z,18.67
2019-04-30T01:20:24.001Z,14.83
2019-04-30T01:22:52.592Z,18.73
2019-04-30T01:25:23.628Z,16.60
2019-04-30T01:27:54.884Z,18.47
2019-04-30T01:30:25.570Z,15.90
2019-04-30T01:32:57.137Z,18.10
2019-04-30T01:35:32.458Z,16.83
2019-04-30T01:38:04.170Z,14.30
2019-04-30T01:40:32.744Z,14.10
2019-04-30T01:43:03.355Z,15.87
2019-04-30T01:45:33.941Z,15.90
2019-04-30T01:48:08.790Z,15.30
2019-04-30T01:50:41.963Z,14.63
2019-04-30T01:53:13.161Z,15.97
2019-04-30T01:56:09.140Z,18.30
2019-04-30T01:58:53.044Z,16.70
2019-04-30T02:01:24.807Z,16.93
2019-04-30T02:03:55.281Z,18.33
2019-04-30T02:06:26.916Z,17.57
2019-04-30T02:08:59.223Z,18.03
2019-04-30T02:11:29.563Z,16.80
2019-04-30T02:14:00.055Z,20.10
2019-04-30T02:16:30.586Z,20.70
2019-04-30T02:19:01.493Z,16.63
2019-04-30T02:21:33.446Z,16.50
2019-04-30T02:24:06.110Z,17.47
2019-04-30T02:26:38.394Z,14.87
2019-04-30T02:29:09.223Z,18.00
2019-04-30T02:31:42.187Z,22.47
2019-04-30T02:34:22.243Z,20.70
2019-04-30T02:37:16.993Z,19.47
2019-04-30T02:39:50.182Z,19.53
2019-04-30T02:42:20.788Z,18.53
2019-04-30T02:44:57.139Z,22.40
2019-04-30T02:47:31.191Z,23.73
2019-04-30T02:50:15.348Z,23.00
2019-04-30T02:52:40.283Z,24.10
2019-04-30T02:55:15.771Z,27.37
2019-04-30T02:57:46.232Z,25.03
2019-04-30T03:00:20.781Z,26.10
2019-04-30T03:02:51.466Z,28.47
2019-04-30T03:05:21.941Z,24.30
2019-04-30T03:07:53.541Z,28.00
2019-04-30T03:10:24.275Z,31.80
2019-04-30T03:12:54.795Z,29.63
2019-04-30T03:15:25.402Z,26.80
2019-04-30T03:18:20.060Z,32.17
2019-04-30T03:21:12.437Z,26.43
2019-04-30T03:23:42.992Z,26.17
2019-04-30T03:26:13.534Z,25.47
2019-04-30T03:28:44.161Z,35.77
2019-04-30T03:31:14.666Z,33.07
2019-04-30T03:33:45.365Z,32.30
2019-04-30T03:36:15.822Z,39.80
2019-04-30T03:38:46.307Z,41.93
2019-04-30T03:41:19.572Z,35.47
2019-04-30T03:43:50.376Z,34.33
2019-04-30T03:46:21.197Z,36.87
2019-04-30T03:48:53.921Z,32.37
2019-04-30T03:51:24.508Z,38.47
2019-04-30T03:53:56.212Z,35.73
2019-04-30T03:56:29.608Z,39.27
2019-04-30T03:59:00.257Z,38.27
2019-04-30T04:01:40.448Z,33.20
2019-04-30T04:04:32.841Z,38.97
2019-04-30T04:07:13.564Z,35.23
2019-04-30T04:09:50.043Z,35.33
2019-04-30T04:12:24.205Z,35.53
2019-04-30T04:14:54.940Z,32.67
2019-04-30T04:17:25.760Z,44.30
2019-04-30T04:19:56.299Z,35.40
2019-04-30T04:22:26.756Z,41.77
2019-04-30T04:25:00.104Z,43.37
2019-04-30T04:27:30.531Z,37.10
2019-04-30T04:30:01.537Z,35.27
2019-04-30T04:32:32.497Z,35.07
2019-04-30T04:35:03.052Z,39.27
2019-04-30T04:37:36.301Z,35.97
2019-04-30T04:40:09.288Z,34.97
2019-04-30T04:42:39.835Z,37.37
2019-04-30T04:45:10.787Z,34.83
2019-04-30T04:47:41.393Z,42.13
2019-04-30T04:50:11.959Z,35.83
2019-04-30T04:52:42.647Z,38.37
2019-04-30T04:55:13.429Z,30.27
2019-04-30T04:57:43.896Z,36.37
2019-04-30T05:00:14.485Z,32.77
2019-04-30T05:02:55.087Z,38.37
2019-04-30T05:05:25.601Z,37.27
2019-04-30T05:07:56.069Z,31.80
2019-04-30T05:10:26.567Z,33.30
2019-04-30T05:12:57.027Z,33.30
2019-04-30T05:15:29.490Z,33.43
2019-04-30T05:18:00.182Z,34.90
2019-04-30T05:20:30.632Z,34.83
2019-04-30T05:23:01.601Z,27.83
2019-04-30T05:25:32.683Z,26.13
2019-04-30T05:28:03.440Z,31.17
2019-04-30T05:30:33.930Z,31.57
2019-04-30T05:33:12.295Z,29.97
2019-04-30T05:35:42.830Z,27.27
2019-04-30T05:38:13.402Z,25.37
2019-04-30T05:40:43.857Z,30.80
2019-04-30T05:43:16.424Z,33.53
2019-04-30T05:45:48.980Z,25.87
2019-04-30T05:48:19.120Z,29.23
2019-04-30T05:50:51.735Z,29.53
2019-04-30T05:53:23.302Z,32.23
2019-04-30T05:55:53.786Z,28.47
2019-04-30T05:58:24.417Z,30.87
2019-04-30T06:00:54.904Z,32.50
2019-04-30T06:03:30.745Z,35.43
2019-04-30T06:05:58.913Z,31.17
2019-04-30T06:08:39.187Z,29.93
2019-04-30T06:11:19.486Z,29.53
2019-04-30T06:14:08.856Z,28.60
2019-04-30T06:16:39.385Z,23.47
2019-04-30T06:19:09.858Z,28.20
2019-04-30T06:21:40.636Z,32.33
2019-04-30T06:24:14.485Z,33.63
2019-04-30T06:26:44.982Z,39.37
2019-04-30T06:29:16.054Z,36.03
2019-04-30T06:31:48.638Z,35.17
2019-04-30T06:34:19.768Z,29.57
2019-04-30T06:36:54.182Z,28.67
2019-04-30T06:39:24.916Z,25.43
2019-04-30T06:42:05.012Z,25.73
2019-04-30T06:44:37.405Z,27.80
2019-04-30T06:47:03.356Z,32.50
2019-04-30T06:49:34.526Z,30.67
2019-04-30T06:52:17.510Z,27.13
2019-04-30T06:54:39.272Z,28.73
2019-04-30T06:57:12.126Z,29.90
2019-04-30T06:59:42.068Z,30.97
2019-04-30T07:02:16.106Z,22.93
2019-04-30T07:04:46.627Z,27.87
2019-04-30T07:07:19.250Z,27.30
2019-04-30T07:09:58.584Z,22.87
2019-04-30T07:12:46.395Z,28.33
2019-04-30T07:15:17.049Z,27.43
2019-04-30T07:17:49.174Z,26.27
2019-04-30T07:20:19.791Z,23.23
2019-04-30T07:22:58.853Z,22.80
2019-04-30T07:25:22.667Z,23.37
2019-04-30T07:27:54.881Z,18.97
2019-04-30T07:30:30.647Z,25.57
2019-04-30T07:33:00.981Z,22.37
2019-04-30T07:35:31.574Z,22.67
2019-04-30T07:38:04.835Z,25.03
2019-04-30T07:40:35.802Z,21.63
2019-04-30T07:43:06.273Z,24.07
2019-04-30T07:45:36.815Z,19.60
2019-04-30T07:48:09.345Z,21.90
2019-04-30T07:50:41.106Z,15.60
2019-04-30T07:53:12.375Z,19.43
2019-04-30T07:55:44.577Z,17.90
2019-04-30T07:58:15.152Z,17.63
2019-04-30T08:00:46.011Z,19.40
2019-04-30T08:03:43.906Z,21.03
2019-04-30T08:06:15.662Z,20.53
2019-04-30T08:08:47.146Z,16.77
2019-04-30T08:11:25.768Z,22.07
2019-04-30T08:13:50.519Z,19.73
2019-04-30T08:16:21.417Z,20.53
2019-04-30T08:18:53.521Z,14.03
2019-04-30T08:21:24.411Z,15.13
2019-04-30T08:23:55.021Z,16.00
2019-04-30T08:26:25.585Z,14.37
2019-04-30T08:28:56.082Z,14.00
2019-04-30T08:31:26.551Z,12.90
2019-04-30T08:33:58.935Z,14.67
2019-04-30T08:36:29.778Z,12.30
2019-04-30T08:39:00.548Z,16.47
2019-04-30T08:41:32.089Z,15.07
2019-04-30T08:44:02.588Z,9.87
2019-04-30T08:46:33.059Z,15.83
2019-04-30T08:49:03.555Z,12.17
2019-04-30T08:51:34.134Z,15.30
2019-04-30T08:54:04.554Z,12.63
2019-04-30T08:56:35.078Z,14.10
2019-04-30T08:59:08.743Z,14.40
2019-04-30T09:01:39.854Z,13.87
2019-04-30T09:04:10.586Z,11.80
2019-04-30T09:06:41.394Z,13.00
2019-04-30T09:09:20.061Z,13.10
2019-04-30T09:11:55.386Z,10.00
2019-04-30T09:14:23.049Z,11.80
2019-04-30T09:16:54.828Z,9.40
2019-04-30T09:19:31.649Z,11.77
2019-04-30T09:22:03.518Z,9.50
2019-04-30T09:24:34.590Z,12.93
2019-04-30T09:27:05.530Z,9.50
2019-04-30T09:29:36.027Z,11.07
2019-04-30T09:32:06.500Z,13.97
2019-04-30T09:34:38.436Z,12.30
2019-04-30T09:37:09.337Z,11.70
2019-04-30T09:39:39.850Z,13.20
2019-04-30T09:42:10.315Z,13.90
2019-04-30T09:44:40.801Z,12.50
2019-04-30T09:47:11.430Z,12.13
2019-04-30T09:49:41.928Z,13.47
2019-04-30T09:52:12.560Z,12.13
2019-04-30T09:54:43.226Z,16.37
2019-04-30T09:57:14.048Z,12.93
2019-04-30T09:59:44.532Z,13.57
2019-04-30T10:02:19.770Z,15.43
2019-04-30T10:04:50.668Z,16.47
2019-04-30T10:07:22.718Z,18.17
2019-04-30T10:09:53.234Z,17.20
2019-04-30T10:12:23.994Z,18.80
2019-04-30T10:14:59.296Z,19.60
2019-04-30T10:17:37.491Z,23.87
2019-04-30T10:20:15.299Z,23.57
2019-04-30T10:22:45.715Z,29.33
2019-04-30T10:25:16.697Z,25.73
2019-04-30T10:27:49.648Z,25.30
2019-04-30T10:30:26.036Z,22.70
2019-04-30T10:32:56.874Z,24.60
2019-04-30T10:35:31.768Z,27.23
2019-04-30T10:38:04.488Z,24.93
2019-04-30T10:40:35.345Z,25.60
2019-04-30T10:43:08.673Z,27.00
2019-04-30T10:45:39.518Z,23.07
2019-04-30T10:48:10.216Z,26.43
2019-04-30T10:50:42.154Z,21.00
2019-04-30T10:53:17.295Z,19.57
2019-04-30T10:55:48.598Z,19.40
2019-04-30T10:58:19.480Z,17.17
2019-04-30T11:00:50.043Z,13.50
2019-04-30T11:03:22.966Z,13.37
2019-04-30T11:05:54.094Z,14.37
2019-04-30T11:08:24.705Z,15.20
2019-04-30T11:10:55.232Z,13.90
2019-04-30T11:13:25.805Z,13.70
2019-04-30T11:15:56.540Z,13.63
2019-04-30T11:18:27.500Z,14.60
2019-04-30T11:21:02.308Z,10.67
2019-04-30T11:23:33.189Z,10.80
2019-04-30T11:26:07.200Z,8.10
2019-04-30T11:28:38.393Z,8.60
2019-04-30T11:31:33.973Z,8.90
2019-04-30T11:34:05.568Z,10.13
2019-04-30T11:36:36.210Z,10.53
2019-04-30T11:39:15.609Z,10.87
2019-04-30T11:41:46.432Z,11.33
2019-04-30T11:44:28.537Z,14.10
2019-04-30T11:47:35.522Z,14.33
2019-04-30T11:50:14.181Z,12.30
2019-04-30T11:52:44.756Z,11.77
2019-04-30T11:55:16.198Z,12.73
2019-04-30T11:57:47.009Z,14.80
2019-04-30T12:00:29.648Z,14.63
2019-04-30T12:03:00.224Z,14.27
2019-04-30T12:05:30.709Z,15.60
2019-04-30T12:08:11.133Z,12.83
2019-04-30T12:10:47.213Z,13.47
2019-04-30T12:13:28.001Z,14.50
2019-04-30T12:15:59.883Z,14.37
2019-04-30T12:18:30.376Z,13.97
2019-04-30T12:21:01.063Z,15.37
2019-04-30T12:23:31.555Z,16.00
2019-04-30T12:26:03.052Z,13.20
2019-04-30T12:28:33.676Z,16.53
2019-04-30T12:31:05.898Z,16.13
2019-04-30T12:33:36.625Z,14.53
2019-04-30T12:36:09.036Z,15.60
2019-04-30T12:38:39.690Z,13.80
2019-04-30T12:41:10.840Z,17.07
2019-04-30T12:43:42.143Z,13.07
2019-04-30T12:46:12.725Z,12.90
2019-04-30T12:49:11.177Z,15.67
2019-04-30T12:51:58.736Z,14.93
2019-04-30T12:54:53.154Z,13.30
2019-04-30T12:57:39.453Z,13.80
2019-04-30T13:00:15.211Z,13.03
2019-04-30T13:02:46.042Z,14.57
2019-04-30T13:05:18.849Z,16.30
2019-04-30T13:07:50.349Z,16.30
2019-04-30T13:10:22.367Z,16.20
2019-04-30T13:12:55.385Z,15.50
2019-04-30T13:15:26.513Z,14.87
2019-04-30T13:17:58.570Z,15.67
2019-04-30T13:20:29.448Z,14.37
2019-04-30T13:23:00.243Z,16.77
2019-04-30T13:25:35.328Z,14.07
2019-04-30T13:28:08.881Z,15.70
2019-04-30T13:30:40.745Z,13.87
2019-04-30T13:33:36.169Z,17.43
2019-04-30T13:36:08.789Z,13.40
2019-04-30T13:38:52.344Z,12.37
2019-04-30T13:41:38.941Z,13.40
2019-04-30T13:44:11.464Z,13.70
2019-04-30T13:46:43.391Z,12.20
2019-04-30T13:49:15.612Z,14.70
2019-04-30T13:51:46.555Z,12.83
2019-04-30T13:54:17.123Z,17.37
2019-04-30T13:56:49.290Z,15.10
2019-04-30T13:59:19.946Z,12.77
2019-04-30T14:01:50.464Z,13.90
2019-04-30T14:04:35.782Z,12.37
2019-04-30T14:07:31.829Z,11.40
2019-04-30T14:10:02.295Z,11.00
2019-04-30T14:12:36.215Z,15.03
2019-04-30T14:15:09.221Z,12.57
2019-04-30T14:17:40.161Z,14.23
2019-04-30T14:20:11.309Z,12.27
2019-04-30T14:22:41.774Z,11.23
2019-04-30T14:25:12.738Z,14.97
2019-04-30T14:27:51.737Z,10.53
2019-04-30T14:30:19.111Z,14.60
2019-04-30T14:32:50.786Z,11.73
2019-04-30T14:35:21.997Z,11.47
2019-04-30T14:37:52.756Z,14.07
2019-04-30T14:40:26.792Z,14.50
2019-04-30T14:43:05.368Z,12.53
2019-04-30T14:46:13.702Z,11.73
2019-04-30T14:48:51.854Z,11.53
2019-04-30T14:51:22.791Z,10.60
2019-04-30T14:54:09.586Z,11.60
2019-04-30T14:56:53.477Z,14.07
2019-04-30T14:59:55.013Z,12.10
2019-04-30T15:02:29.828Z,13.30
2019-04-30T15:05:00.498Z,13.33
2019-04-30T15:07:31.036Z,15.30
2019-04-30T15:10:01.538Z,12.33
2019-04-30T15:12:32.113Z,14.43
2019-04-30T15:15:02.598Z,13.13
2019-04-30T15:17:33.103Z,12.13
2019-04-30T15:20:03.817Z,15.37
2019-04-30T15:22:38.929Z,13.97
2019-04-30T15:25:09.627Z,11.57
2019-04-30T15:27:45.089Z,13.23
2019-04-30T15:30:13.438Z,14.20
2019-04-30T15:32:45.644Z,12.40
2019-04-30T15:35:19.737Z,17.90
2019-04-30T15:37:52.014Z,12.13
2019-04-30T15:40:22.893Z,12.23
2019-04-30T15:42:55.061Z,13.57
2019-04-30T15:45:25.594Z,12.57
2019-04-30T15:47:58.426Z,13.10
2019-04-30T15:50:29.601Z,12.57
2019-04-30T15:53:10.278Z,10.33
2019-04-30T15:55:40.784Z,17.00
2019-04-30T15:58:18.257Z,11.57
2019-04-30T16:00:49.400Z,13.17
2019-04-30T16:03:24.625Z,11.17
2019-04-30T16:05:55.124Z,10.77
2019-04-30T16:08:42.640Z,11.53
2019-04-30T16:11:32.044Z,12.10
2019-04-30T16:14:10.714Z,12.97
2019-04-30T16:16:44.090Z,12.47
2019-04-30T16:19:15.067Z,11.50
2019-04-30T16:21:46.765Z,11.53
2019-04-30T16:24:18.767Z,11.43
2019-04-30T16:26:52.567Z,13.43
2019-04-30T16:29:23.651Z,11.27
2019-04-30T16:31:54.457Z,12.00
2019-04-30T16:34:25.079Z,11.57
2019-04-30T16:36:55.598Z,9.80
2019-04-30T16:39:29.292Z,12.13
2019-04-30T16:41:59.876Z,13.27
2019-04-30T16:44:30.358Z,11.03
2019-04-30T16:47:12.971Z,14.27
2019-04-30T16:49:36.294Z,13.90
2019-04-30T16:52:09.621Z,11.63
2019-04-30T16:54:42.054Z,13.67
2019-04-30T16:57:18.607Z,10.70
2019-04-30T16:59:50.030Z,12.33
2019-04-30T17:02:29.493Z,13.20
2019-04-30T17:05:19.475Z,11.90
2019-04-30T17:08:03.818Z,12.03
2019-04-30T17:11:01.795Z,11.73
2019-04-30T17:13:46.074Z,11.63
2019-04-30T17:16:26.784Z,13.50
2019-04-30T17:18:59.078Z,12.27
2019-04-30T17:21:29.749Z,12.30
2019-04-30T17:24:00.298Z,12.07
2019-04-30T17:26:30.899Z,12.03
2019-04-30T17:29:01.389Z,12.73
2019-04-30T17:31:31.911Z,10.40
2019-04-30T17:34:09.278Z,12.27
2019-04-30T17:36:39.790Z,13.00
2019-04-30T17:39:14.551Z,16.40
2019-04-30T17:41:51.036Z,11.07
2019-04-30T17:44:21.500Z,9.73
2019-04-30T17:46:55.392Z,12.37
2019-04-30T17:49:25.874Z,13.97
2019-04-30T17:51:59.107Z,10.90
2019-04-30T17:54:32.047Z,9.30
2019-04-30T17:57:02.705Z,9.83
2019-04-30T17:59:33.190Z,12.30
2019-04-30T18:02:05.615Z,10.87
2019-04-30T18:04:36.627Z,13.97
2019-04-30T18:07:07.273Z,10.97
2019-04-30T18:09:38.930Z,11.07
2019-04-30T18:12:09.629Z,12.63
2019-04-30T18:14:40.233Z,14.63
2019-04-30T18:17:10.898Z,11.47
2019-04-30T18:19:54.314Z,11.23
2019-04-30T18:22:53.105Z,11.07
2019-04-30T18:25:34.798Z,12.43
2019-04-30T18:28:05.793Z,14.10
2019-04-30T18:30:39.117Z,14.77
2019-04-30T18:33:10.055Z,14.03
2019-04-30T18:35:40.795Z,13.17
2019-04-30T18:38:14.491Z,14.70
2019-04-30T18:40:46.276Z,12.40
2019-04-30T18:43:29.589Z,13.17
2019-04-30T18:46:00.712Z,12.47
2019-04-30T18:48:53.558Z,14.33
2019-04-30T18:51:36.559Z,13.77
2019-04-30T18:53:59.502Z,11.87
2019-04-30T18:56:33.452Z,13.07
2019-04-30T18:59:08.794Z,12.63
2019-04-30T19:01:39.691Z,10.77
2019-04-30T19:04:13.416Z,13.87
2019-04-30T19:06:53.693Z,13.17
2019-04-30T19:09:32.263Z,13.07
2019-04-30T19:12:24.987Z,13.23
2019-04-30T19:15:17.303Z,12.33
2019-04-30T19:18:11.259Z,14.83
2019-04-30T19:20:49.740Z,14.70
2019-04-30T19:23:21.147Z,13.80
2019-04-30T19:25:55.357Z,14.83
2019-04-30T19:28:32.197Z,13.53
2019-04-30T19:31:09.185Z,12.40
2019-04-30T19:33:48.948Z,13.80
2019-04-30T19:36:37.319Z,12.83
2019-04-30T19:39:03.591Z,12.93
2019-04-30T19:41:38.739Z,13.63
2019-04-30T19:44:10.542Z,14.17
2019-04-30T19:46:52.258Z,13.63
2019-04-30T19:49:38.950Z,16.03
2019-04-30T19:52:26.868Z,17.07
2019-04-30T19:54:59.538Z,13.50
2019-04-30T19:57:39.933Z,15.77
2019-04-30T20:00:29.092Z,14.20
2019-04-30T20:03:19.752Z,13.10
2019-04-30T20:05:53.484Z,13.70
2019-04-30T20:08:38.751Z,13.60
2019-04-30T20:11:13.381Z,13.27
2019-04-30T20:13:44.620Z,13.40
2019-04-30T20:16:15.625Z,16.67
2019-04-30T20:19:10.979Z,14.67
2019-04-30T20:22:34.784Z,15.03
2019-04-30T20:25:27.728Z,13.03
2019-04-30T20:28:02.768Z,12.87
2019-04-30T20:30:42.145Z,12.90
2019-04-30T20:33:16.393Z,14.03
2019-04-30T20:35:50.386Z,14.53
2019-04-30T20:38:48.467Z,14.33
2019-04-30T20:41:28.622Z,12.87
2019-04-30T20:44:20.124Z,13.80
2019-04-30T20:46:52.880Z,13.93
2019-04-30T20:49:24.914Z,15.73
2019-04-30T20:51:58.982Z,12.50
2019-04-30T20:54:31.639Z,13.53
2019-04-30T20:57:02.916Z,13.83
2019-04-30T20:59:34.648Z,13.67
2019-04-30T21:02:07.017Z,13.03
2019-04-30T21:04:37.602Z,13.93
2019-04-30T21:07:09.431Z,13.73
2019-04-30T21:09:40.103Z,14.60
2019-04-30T21:12:10.934Z,14.27
2019-04-30T21:14:41.549Z,14.40
2019-04-30T21:17:13.754Z,13.10
2019-04-30T21:19:53.120Z,12.47
2019-04-30T21:22:26.471Z,14.03
2019-04-30T21:24:58.898Z,14.03
2019-04-30T21:27:30.423Z,14.53
2019-04-30T21:30:01.292Z,14.40
2019-04-30T21:32:49.496Z,13.43
2019-04-30T21:35:51.976Z,13.70
2019-04-30T21:38:22.578Z,17.97
2019-04-30T21:40:54.971Z,16.87
2019-04-30T21:43:26.998Z,19.10
2019-04-30T21:45:59.376Z,16.80
2019-04-30T21:48:30.143Z,13.93
2019-04-30T21:51:02.957Z,13.23
2019-04-30T21:53:33.949Z,13.77
2019-04-30T21:56:05.540Z,13.70
2019-04-30T21:58:36.238Z,15.27
2019-04-30T22:01:25.071Z,13.83
2019-04-30T22:03:56.052Z,14.07
2019-04-30T22:06:29.594Z,14.37
2019-04-30T22:09:00.491Z,12.13
2019-04-30T22:11:31.113Z,19.47
2019-04-30T22:14:04.173Z,17.23
2019-04-30T22:16:34.853Z,13.93
2019-04-30T22:19:05.445Z,13.57
2019-04-30T22:21:35.993Z,12.27
2019-04-30T22:24:06.645Z,15.97
2019-04-30T22:26:37.170Z,16.10
2019-04-30T22:29:09.203Z,13.70
2019-04-30T22:31:39.864Z,14.43
2019-04-30T22:34:10.418Z,15.60
2019-04-30T22:36:48.813Z,15.60
2019-04-30T22:39:50.374Z,15.07
2019-04-30T22:42:34.893Z,14.70
2019-04-30T22:45:10.111Z,16.00
2019-04-30T22:47:40.719Z,15.50
2019-04-30T22:50:12.353Z,17.23
2019-04-30T22:52:43.014Z,16.17
2019-04-30T22:55:15.872Z,15.60
2019-04-30T22:57:46.405Z,18.07
2019-04-30T23:00:24.795Z,16.33
2019-04-30T23:03:07.939Z,15.90
2019-04-30T23:05:40.571Z,15.03
2019-04-30T23:08:11.171Z,13.73
2019-04-30T23:10:41.655Z,15.47
2019-04-30T23:13:12.167Z,14.50
2019-04-30T23:15:42.839Z,17.23
2019-04-30T23:18:13.567Z,18.53
2019-04-30T23:20:44.102Z,16.77
2019-04-30T23:23:14.570Z,16.23
2019-04-30T23:25:48.154Z,17.40
2019-04-30T23:28:18.737Z,15.53
2019-04-30T23:30:49.289Z,16.20
2019-04-30T23:33:19.755Z,15.83
2019-04-30T23:35:50.266Z,16.80
2019-04-30T23:38:20.781Z,15.67
2019-04-30T23:40:53.013Z,15.47
2019-04-30T23:43:24.053Z,19.93
2019-04-30T23:45:54.575Z,14.70
2019-04-30T23:48:28.133Z,17.73
2019-04-30T23:50:58.592Z,16.77
2019-04-30T23:53:29.128Z,15.70
2019-04-30T23:55:59.586Z,16.20
2019-04-30T23:58:30.082Z,13.70
